createdAt,value
2018-09-04T00:02:11.031Z,24.14
2018-09-04T00:04:40.089Z,23.85
2018-09-04T00:07:10.281Z,23.84
2018-09-04T00:09:39.211Z,23.49
2018-09-04T00:12:08.131Z,23.73
2018-09-04T00:14:37.006Z,24.15
2018-09-04T00:17:07.186Z,24.22
2018-09-04T00:19:36.090Z,23.98
2018-09-04T00:22:06.106Z,23.62
2018-09-04T00:24:35.047Z,23.23
2018-09-04T00:27:03.845Z,23.06
2018-09-04T00:29:32.831Z,23.33
2018-09-04T00:32:01.991Z,23.37
2018-09-04T00:34:32.213Z,23.12
2018-09-04T00:37:01.066Z,22.81
2018-09-04T00:39:29.991Z,22.53
2018-09-04T00:41:58.930Z,22.17
2018-09-04T00:44:27.848Z,22.02
2018-09-04T00:46:56.744Z,22.26
2018-09-04T00:49:25.759Z,22.08
2018-09-04T00:51:54.968Z,22.06
2018-09-04T00:54:23.872Z,21.98
2018-09-04T00:56:52.785Z,21.85
2018-09-04T00:59:21.751Z,21.80
2018-09-04T01:01:50.641Z,21.78
2018-09-04T01:04:19.607Z,21.85
2018-09-04T01:06:48.554Z,22.07
2018-09-04T01:09:19.647Z,21.96
2018-09-04T01:11:48.863Z,22.10
2018-09-04T01:14:17.763Z,22.55
2018-09-04T01:16:46.830Z,23.31
2018-09-04T01:19:15.958Z,23.72
2018-09-04T01:21:44.887Z,23.98
2018-09-04T01:24:13.737Z,24.72
2018-09-04T01:26:42.663Z,25.39
2018-09-04T01:29:11.687Z,25.14
2018-09-04T01:31:40.650Z,24.74
2018-09-04T01:34:09.619Z,24.68
2018-09-04T01:36:38.801Z,24.95
2018-09-04T01:39:08.171Z,24.67
2018-09-04T01:41:37.079Z,24.35
2018-09-04T01:44:06.103Z,24.09
2018-09-04T01:46:35.080Z,23.99
2018-09-04T01:49:04.019Z,23.98
2018-09-04T01:51:32.919Z,23.97
2018-09-04T01:54:01.821Z,23.58
2018-09-04T01:56:30.738Z,23.40
2018-09-04T01:58:59.686Z,23.37
2018-09-04T02:01:28.685Z,23.25
2018-09-04T02:03:57.632Z,23.64
2018-09-04T02:06:27.973Z,23.85
2018-09-04T02:08:56.899Z,24.29
2018-09-04T02:11:25.826Z,24.03
2018-09-04T02:13:54.944Z,23.72
2018-09-04T02:16:23.949Z,23.22
2018-09-04T02:18:52.807Z,22.72
2018-09-04T02:21:21.739Z,22.18
2018-09-04T02:23:50.862Z,21.98
2018-09-04T02:26:19.760Z,21.93
2018-09-04T02:28:48.642Z,21.99
2018-09-04T02:31:17.689Z,22.46
2018-09-04T02:33:46.562Z,22.63
2018-09-04T02:36:15.417Z,22.51
2018-09-04T02:38:44.402Z,22.26
2018-09-04T02:41:13.366Z,22.40
2018-09-04T02:43:42.422Z,22.35
2018-09-04T02:46:11.272Z,21.87
2018-09-04T02:48:40.163Z,21.66
2018-09-04T02:51:09.194Z,21.47
2018-09-04T02:53:38.593Z,21.55
2018-09-04T02:56:07.468Z,21.98
2018-09-04T02:58:36.504Z,22.41
2018-09-04T03:01:05.533Z,21.67
2018-09-04T03:03:34.465Z,21.21
2018-09-04T03:06:03.362Z,20.52
2018-09-04T03:08:32.388Z,20.64
2018-09-04T03:11:01.338Z,21.27
2018-09-04T03:13:30.353Z,21.34
2018-09-04T03:15:59.238Z,21.63
2018-09-04T03:18:28.098Z,21.76
2018-09-04T03:20:57.089Z,21.72
2018-09-04T03:23:26.145Z,21.71
2018-09-04T03:25:54.982Z,21.73
2018-09-04T03:28:23.993Z,21.43
2018-09-04T03:30:53.142Z,21.26
2018-09-04T03:33:22.054Z,21.17
2018-09-04T03:35:51.221Z,21.00
2018-09-04T03:38:20.128Z,21.04
2018-09-04T03:40:48.977Z,21.26
2018-09-04T03:43:17.947Z,22.00
2018-09-04T03:45:46.955Z,22.62
2018-09-04T03:48:15.928Z,23.74
2018-09-04T03:50:44.997Z,24.37
2018-09-04T03:53:13.918Z,24.58
2018-09-04T03:55:42.713Z,25.52
2018-09-04T03:58:11.682Z,25.13
2018-09-04T04:00:40.683Z,23.95
2018-09-04T04:03:09.698Z,23.57
2018-09-04T04:05:39.967Z,24.27
2018-09-04T04:08:08.931Z,23.95
2018-09-04T04:10:37.820Z,23.86
2018-09-04T04:13:06.904Z,23.62
2018-09-04T04:15:37.061Z,24.63
2018-09-04T04:18:06.560Z,25.15
2018-09-04T04:20:37.034Z,25.31
2018-09-04T04:23:07.487Z,25.43
2018-09-04T04:25:36.389Z,25.65
2018-09-04T04:28:06.726Z,25.86
2018-09-04T04:30:35.640Z,26.13
2018-09-04T04:33:04.742Z,26.47
2018-09-04T04:35:33.705Z,26.31
2018-09-04T04:38:02.620Z,25.97
2018-09-04T04:40:31.533Z,25.10
2018-09-04T04:43:01.734Z,24.75
2018-09-04T04:45:30.629Z,24.56
2018-09-04T04:47:59.656Z,23.82
2018-09-04T04:50:28.748Z,23.08
2018-09-04T04:52:57.788Z,23.06
2018-09-04T04:55:26.756Z,23.08
2018-09-04T04:57:55.618Z,23.08
2018-09-04T05:00:25.974Z,22.96
2018-09-04T05:02:54.935Z,22.89
2018-09-04T05:05:23.898Z,22.24
2018-09-04T05:07:52.847Z,21.23
2018-09-04T05:10:21.657Z,21.19
2018-09-04T05:12:50.685Z,21.18
2018-09-04T05:15:19.593Z,20.95
2018-09-04T05:17:48.571Z,20.98
2018-09-04T05:20:23.084Z,20.91
2018-09-04T05:22:52.014Z,20.81
2018-09-04T05:25:21.136Z,20.90
2018-09-04T05:27:50.235Z,21.19
2018-09-04T05:30:20.717Z,21.47
2018-09-04T05:32:54.678Z,21.44
2018-09-04T05:35:23.768Z,21.45
2018-09-04T05:37:52.768Z,21.54
2018-09-04T05:40:21.771Z,21.78
2018-09-04T05:42:58.285Z,21.87
2018-09-04T05:45:30.106Z,21.81
2018-09-04T05:48:12.305Z,21.58
2018-09-04T05:50:41.374Z,21.89
2018-09-04T05:53:10.360Z,22.04
2018-09-04T05:55:39.283Z,22.03
2018-09-04T05:58:08.246Z,22.01
2018-09-04T06:00:46.637Z,22.29
2018-09-04T06:03:15.635Z,22.51
2018-09-04T06:05:44.563Z,23.02
2018-09-04T06:08:13.477Z,23.12
2018-09-04T06:10:42.345Z,23.25
2018-09-04T06:13:11.368Z,23.24
2018-09-04T06:15:40.218Z,23.39
2018-09-04T06:18:09.291Z,23.43
2018-09-04T06:20:38.264Z,23.46
2018-09-04T06:23:07.535Z,23.55
2018-09-04T06:25:39.196Z,23.94
2018-09-04T06:28:08.106Z,23.92
2018-09-04T06:30:37.131Z,23.96
2018-09-04T06:33:06.075Z,23.64
2018-09-04T06:35:35.056Z,23.92
2018-09-04T06:38:03.971Z,23.85
2018-09-04T06:40:32.873Z,23.96
2018-09-04T06:43:01.806Z,24.04
2018-09-04T06:45:30.839Z,24.50
2018-09-04T06:47:59.790Z,24.70
2018-09-04T06:50:28.750Z,25.07
2018-09-04T06:52:57.664Z,25.38
2018-09-04T06:55:27.923Z,25.43
2018-09-04T06:57:56.865Z,24.73
2018-09-04T07:00:25.758Z,25.23
2018-09-04T07:02:55.931Z,25.21
2018-09-04T07:05:24.888Z,25.63
2018-09-04T07:07:53.868Z,25.95
2018-09-04T07:10:22.801Z,26.27
2018-09-04T07:12:52.993Z,26.45
2018-09-04T07:15:21.913Z,26.31
2018-09-04T07:17:50.811Z,26.37
2018-09-04T07:20:21.204Z,26.48
2018-09-04T07:22:50.311Z,26.54
2018-09-04T07:25:19.218Z,26.68
2018-09-04T07:27:48.493Z,26.84
2018-09-04T07:30:17.397Z,27.07
2018-09-04T07:32:46.480Z,27.10
2018-09-04T07:35:16.972Z,27.04
2018-09-04T07:37:45.879Z,27.21
2018-09-04T07:40:14.809Z,27.24
2018-09-04T07:42:43.737Z,27.51
2018-09-04T07:45:12.681Z,27.38
2018-09-04T07:47:41.496Z,27.32
2018-09-04T07:50:12.408Z,27.32
2018-09-04T07:52:41.313Z,27.36
2018-09-04T07:55:10.213Z,27.39
2018-09-04T07:57:41.551Z,27.61
2018-09-04T08:00:10.684Z,27.86
2018-09-04T08:02:39.627Z,28.08
2018-09-04T08:05:08.613Z,27.87
2018-09-04T08:07:37.727Z,27.90
2018-09-04T08:10:06.725Z,27.83
2018-09-04T08:12:35.603Z,27.64
2018-09-04T08:15:04.617Z,27.73
2018-09-04T08:17:33.585Z,27.77
2018-09-04T08:20:02.573Z,26.83
2018-09-04T08:22:31.421Z,26.80
2018-09-04T08:25:00.379Z,27.39
2018-09-04T08:27:29.289Z,27.82
2018-09-04T08:29:59.552Z,28.06
2018-09-04T08:32:28.546Z,28.14
2018-09-04T08:34:57.476Z,28.35
2018-09-04T08:37:26.342Z,28.53
2018-09-04T08:39:56.585Z,28.41
2018-09-04T08:42:25.512Z,28.47
2018-09-04T08:44:54.420Z,28.63
2018-09-04T08:47:23.433Z,28.83
2018-09-04T08:49:52.281Z,28.85
2018-09-04T08:52:21.373Z,28.72
2018-09-04T08:54:51.816Z,28.47
2018-09-04T08:57:20.812Z,28.72
2018-09-04T08:59:49.809Z,29.01
2018-09-04T09:02:18.761Z,28.87
2018-09-04T09:04:47.722Z,28.92
2018-09-04T09:07:16.689Z,28.87
2018-09-04T09:09:45.710Z,29.03
2018-09-04T09:12:14.649Z,29.03
2018-09-04T09:14:43.589Z,29.00
2018-09-04T09:17:13.901Z,29.12
2018-09-04T09:19:42.864Z,29.14
2018-09-04T09:22:11.737Z,29.41
2018-09-04T09:24:40.779Z,29.56
2018-09-04T09:27:10.063Z,29.69
2018-09-04T09:29:38.957Z,29.82
2018-09-04T09:32:07.886Z,29.89
2018-09-04T09:34:36.805Z,29.95
2018-09-04T09:37:05.834Z,30.06
2018-09-04T09:39:34.879Z,30.08
2018-09-04T09:42:03.899Z,30.13
2018-09-04T09:44:32.833Z,30.16
2018-09-04T09:47:03.782Z,30.20
2018-09-04T09:49:33.526Z,30.27
2018-09-04T09:52:02.480Z,30.43
2018-09-04T09:54:31.500Z,30.50
2018-09-04T09:57:00.469Z,30.63
2018-09-04T09:59:29.489Z,30.70
2018-09-04T10:02:03.484Z,30.76
2018-09-04T10:04:33.933Z,30.85
2018-09-04T10:07:02.792Z,30.85
2018-09-04T10:09:31.702Z,30.68
2018-09-04T10:12:00.800Z,30.61
2018-09-04T10:14:29.730Z,30.63
2018-09-04T10:16:59.975Z,30.66
2018-09-04T10:19:28.922Z,30.88
2018-09-04T10:21:57.831Z,30.92
2018-09-04T10:24:26.761Z,31.02
2018-09-04T10:26:55.803Z,30.80
2018-09-04T10:29:24.687Z,30.96
2018-09-04T10:31:53.529Z,31.04
2018-09-04T10:34:23.579Z,31.06
2018-09-04T10:36:52.416Z,31.13
2018-09-04T10:39:26.547Z,31.16
2018-09-04T10:41:55.399Z,30.99
2018-09-04T10:44:24.377Z,31.06
2018-09-04T10:46:56.821Z,31.14
2018-09-04T10:49:25.862Z,31.19
2018-09-04T10:51:54.737Z,31.24
2018-09-04T10:54:24.918Z,31.26
2018-09-04T10:56:53.797Z,31.43
2018-09-04T10:59:22.619Z,31.58
2018-09-04T11:01:51.473Z,31.53
2018-09-04T11:04:20.295Z,31.62
2018-09-04T11:06:50.454Z,31.80
2018-09-04T11:09:19.406Z,31.69
2018-09-04T11:11:48.254Z,31.63
2018-09-04T11:14:17.232Z,31.41
2018-09-04T11:16:47.355Z,31.27
2018-09-04T11:19:16.141Z,31.60
2018-09-04T11:21:44.953Z,31.45
2018-09-04T11:24:14.989Z,31.22
2018-09-04T11:26:43.808Z,31.11
2018-09-04T11:29:13.441Z,31.17
2018-09-04T11:31:42.312Z,31.36
2018-09-04T11:34:11.285Z,31.36
2018-09-04T11:36:40.109Z,31.23
2018-09-04T11:39:11.842Z,31.47
2018-09-04T11:41:40.766Z,31.61
2018-09-04T11:44:09.578Z,31.40
2018-09-04T11:46:39.746Z,31.41
2018-09-04T11:49:08.555Z,31.52
2018-09-04T11:51:37.355Z,31.63
2018-09-04T11:54:06.485Z,31.75
2018-09-04T11:56:40.082Z,31.64
2018-09-04T12:01:47.273Z,31.92
2018-09-04T12:04:17.466Z,31.58
2018-09-04T12:06:47.825Z,31.62
2018-09-04T12:09:16.690Z,31.75
2018-09-04T12:11:50.834Z,31.60
2018-09-04T12:14:19.734Z,31.61
2018-09-04T12:16:48.575Z,31.33
2018-09-04T12:19:18.977Z,31.47
2018-09-04T12:21:47.984Z,31.52
2018-09-04T12:24:16.940Z,31.64
2018-09-04T12:26:45.905Z,31.67
2018-09-04T12:29:14.786Z,31.54
2018-09-04T12:31:43.771Z,31.60
2018-09-04T12:34:14.140Z,31.51
2018-09-04T12:36:43.034Z,31.51
2018-09-04T12:39:11.885Z,31.41
2018-09-04T12:41:40.737Z,31.33
2018-09-04T12:44:09.676Z,31.38
2018-09-04T12:46:38.611Z,31.47
2018-09-04T12:49:07.557Z,31.60
2018-09-04T12:51:36.545Z,32.09
2018-09-04T12:54:05.368Z,32.87
2018-09-04T12:56:34.196Z,33.90
2018-09-04T12:59:03.049Z,34.69
2018-09-04T13:01:31.917Z,35.13
2018-09-04T13:04:00.773Z,34.53
2018-09-04T13:06:29.622Z,35.26
2018-09-04T13:08:58.479Z,34.70
2018-09-04T13:11:27.346Z,34.85
2018-09-04T13:13:56.192Z,34.96
2018-09-04T13:16:25.174Z,34.41
2018-09-04T13:18:54.079Z,35.63
2018-09-04T13:21:24.831Z,34.95
2018-09-04T13:23:53.608Z,35.47
2018-09-04T13:26:22.460Z,34.97
2018-09-04T13:28:51.422Z,34.81
2018-09-04T13:31:20.239Z,34.86
2018-09-04T13:33:49.200Z,34.66
2018-09-04T13:36:19.313Z,34.00
2018-09-04T13:38:48.249Z,34.18
2018-09-04T13:41:17.092Z,33.89
2018-09-04T13:43:45.973Z,34.33
2018-09-04T13:46:14.918Z,34.78
2018-09-04T13:48:43.816Z,34.72
2018-09-04T13:51:12.778Z,33.54
2018-09-04T13:53:41.699Z,33.54
2018-09-04T13:56:10.559Z,33.17
2018-09-04T13:58:39.377Z,32.61
2018-09-04T14:01:08.234Z,31.83
2018-09-04T14:03:37.046Z,32.29
2018-09-04T14:06:06.123Z,32.87
2018-09-04T14:08:36.528Z,32.83
2018-09-04T14:11:05.403Z,32.17
2018-09-04T14:13:34.198Z,32.56
2018-09-04T14:16:04.831Z,33.73
2018-09-04T14:18:33.671Z,34.03
2018-09-04T14:21:02.608Z,34.07
2018-09-04T14:23:31.374Z,34.80
2018-09-04T14:26:00.233Z,34.55
2018-09-04T14:28:43.997Z,34.28
2018-09-04T14:30:57.950Z,33.93
2018-09-04T14:33:26.884Z,34.03
2018-09-04T14:35:55.872Z,34.05
2018-09-04T14:38:25.905Z,34.93
2018-09-04T14:40:54.757Z,35.27
2018-09-04T14:43:23.697Z,35.18
2018-09-04T14:45:54.008Z,34.69
2018-09-04T14:48:24.549Z,35.22
2018-09-04T14:50:53.880Z,34.71
2018-09-04T14:53:25.172Z,35.11
2018-09-04T14:55:53.979Z,35.10
2018-09-04T14:58:22.814Z,34.73
2018-09-04T15:00:53.116Z,34.72
2018-09-04T15:03:22.784Z,34.61
2018-09-04T15:05:51.812Z,34.41
2018-09-04T15:08:20.569Z,34.86
2018-09-04T15:10:49.536Z,34.38
2018-09-04T15:13:18.425Z,33.94
2018-09-04T15:15:47.260Z,33.92
2018-09-04T15:18:16.126Z,34.11
2018-09-04T15:20:45.019Z,34.15
2018-09-04T15:23:13.897Z,33.73
2018-09-04T15:25:42.859Z,33.93
2018-09-04T15:28:11.798Z,33.92
2018-09-04T15:30:40.658Z,33.77
2018-09-04T15:33:09.588Z,33.80
2018-09-04T15:35:39.837Z,33.40
2018-09-04T15:38:11.420Z,32.44
2018-09-04T15:40:41.524Z,31.72
2018-09-04T15:43:10.408Z,31.71
2018-09-04T15:45:39.269Z,31.96
2018-09-04T15:48:08.176Z,31.94
2018-09-04T15:50:38.521Z,32.04
2018-09-04T15:53:07.618Z,32.06
2018-09-04T15:55:36.454Z,32.12
2018-09-04T15:58:05.385Z,32.18
2018-09-04T16:00:34.176Z,31.79
2018-09-04T16:03:03.261Z,31.75
2018-09-04T16:05:32.226Z,31.64
2018-09-04T16:08:01.106Z,31.11
2018-09-04T16:10:30.020Z,31.09
2018-09-04T16:12:58.919Z,30.55
2018-09-04T16:15:27.781Z,29.96
2018-09-04T16:17:56.652Z,29.81
2018-09-04T16:20:25.530Z,29.56
2018-09-04T16:22:54.356Z,29.20
2018-09-04T16:25:23.272Z,29.04
2018-09-04T16:27:53.534Z,28.91
2018-09-04T16:30:22.373Z,28.87
2018-09-04T16:32:51.260Z,28.72
2018-09-04T16:35:20.115Z,28.59
2018-09-04T16:37:48.982Z,28.50
2018-09-04T16:40:17.938Z,28.43
2018-09-04T16:42:46.904Z,28.33
2018-09-04T16:45:15.791Z,28.26
2018-09-04T16:47:44.629Z,28.34
2018-09-04T16:50:14.878Z,28.22
2018-09-04T16:52:43.784Z,28.24
2018-09-04T16:55:12.680Z,28.17
2018-09-04T16:57:41.588Z,28.14
2018-09-04T17:00:11.699Z,28.03
2018-09-04T17:02:40.629Z,28.04
2018-09-04T17:05:09.618Z,27.95
2018-09-04T17:07:38.485Z,27.88
2018-09-04T17:10:07.537Z,27.88
2018-09-04T17:12:36.432Z,27.83
2018-09-04T17:15:05.399Z,27.85
2018-09-04T17:17:34.217Z,27.80
2018-09-04T17:20:03.182Z,27.67
2018-09-04T17:22:32.047Z,27.38
2018-09-04T17:25:00.877Z,27.27
2018-09-04T17:27:29.707Z,27.21
2018-09-04T17:29:58.573Z,27.16
2018-09-04T17:32:27.534Z,27.08
2018-09-04T17:34:56.420Z,27.00
2018-09-04T17:37:25.377Z,26.97
2018-09-04T17:39:54.532Z,27.01
2018-09-04T17:42:23.317Z,27.08
2018-09-04T17:44:52.521Z,27.09
2018-09-04T17:47:21.591Z,27.11
2018-09-04T17:49:50.416Z,27.14
2018-09-04T17:52:19.252Z,27.05
2018-09-04T17:54:49.385Z,27.06
2018-09-04T17:57:18.356Z,26.97
2018-09-04T17:59:47.238Z,27.07
2018-09-04T18:02:16.186Z,26.95
2018-09-04T18:04:45.065Z,26.94
2018-09-04T18:07:13.937Z,26.74
2018-09-04T18:09:44.087Z,26.65
2018-09-04T18:12:12.981Z,26.51
2018-09-04T18:14:41.808Z,26.48
2018-09-04T18:17:10.774Z,26.33
2018-09-04T18:19:39.761Z,26.13
2018-09-04T18:22:08.628Z,26.04
2018-09-04T18:24:37.541Z,25.96
2018-09-04T18:27:06.423Z,25.99
2018-09-04T18:29:35.261Z,25.83
2018-09-04T18:32:04.425Z,25.81
2018-09-04T18:34:33.322Z,25.87
2018-09-04T18:37:03.513Z,26.10
2018-09-04T18:39:32.498Z,26.32
2018-09-04T18:42:01.380Z,26.25
2018-09-04T18:44:30.562Z,26.33
2018-09-04T18:46:59.458Z,26.04
2018-09-04T18:49:28.349Z,26.08
2018-09-04T18:51:57.249Z,26.17
2018-09-04T18:54:26.078Z,26.20
2018-09-04T18:56:54.925Z,26.44
2018-09-04T18:59:25.508Z,26.54
2018-09-04T19:01:54.282Z,26.47
2018-09-04T19:04:23.111Z,26.49
2018-09-04T19:06:53.388Z,26.48
2018-09-04T19:09:22.270Z,26.37
2018-09-04T19:11:51.153Z,26.45
2018-09-04T19:14:20.050Z,26.30
2018-09-04T19:16:48.929Z,25.90
2018-09-04T19:19:17.875Z,25.50
2018-09-04T19:21:46.817Z,25.67
2018-09-04T19:24:16.501Z,25.65
2018-09-04T19:26:45.378Z,25.53
2018-09-04T19:29:14.186Z,25.45
2018-09-04T19:31:43.149Z,25.68
2018-09-04T19:34:11.997Z,25.57
2018-09-04T19:36:40.892Z,25.41
2018-09-04T19:39:10.479Z,25.14
2018-09-04T19:41:40.654Z,25.11
2018-09-04T19:44:09.499Z,25.32
2018-09-04T19:46:39.701Z,25.28
2018-09-04T19:49:08.709Z,25.29
2018-09-04T19:51:37.486Z,25.22
2018-09-04T19:54:07.796Z,25.21
2018-09-04T19:56:42.761Z,25.34
2018-09-04T19:59:11.698Z,25.35
2018-09-04T20:01:41.087Z,25.42
2018-09-04T20:04:09.953Z,25.38
2018-09-04T20:06:40.252Z,25.36
2018-09-04T20:09:09.246Z,25.32
2018-09-04T20:11:38.169Z,25.30
2018-09-04T20:14:07.010Z,25.17
2018-09-04T20:16:35.867Z,25.33
2018-09-04T20:19:06.117Z,25.33
2018-09-04T20:21:35.054Z,25.00
2018-09-04T20:24:03.941Z,24.99
2018-09-04T20:26:34.242Z,24.70
2018-09-04T20:29:04.375Z,24.69
2018-09-04T20:31:33.358Z,24.90
2018-09-04T20:34:02.194Z,25.26
2018-09-04T20:36:32.461Z,25.36
2018-09-04T20:39:01.430Z,25.41
2018-09-04T20:41:30.397Z,25.30
2018-09-04T20:44:00.804Z,25.19
2018-09-04T20:46:29.708Z,25.33
2018-09-04T20:48:58.564Z,25.27
2018-09-04T20:51:27.381Z,25.28
2018-09-04T20:53:56.336Z,25.44
2018-09-04T20:56:25.348Z,25.41
2018-09-04T20:59:05.137Z,25.48
2018-09-04T21:01:46.009Z,25.44
2018-09-04T21:04:26.106Z,25.37
2018-09-04T21:06:54.868Z,25.45
2018-09-04T21:09:39.976Z,25.20
2018-09-04T21:12:09.189Z,24.98
2018-09-04T21:14:39.383Z,24.95
2018-09-04T21:17:08.360Z,25.11
2018-09-04T21:19:37.286Z,24.97
2018-09-04T21:22:06.277Z,24.95
2018-09-04T21:24:35.141Z,24.97
2018-09-04T21:27:04.070Z,25.08
2018-09-04T21:29:33.101Z,24.90
2018-09-04T21:32:01.874Z,24.71
2018-09-04T21:34:30.804Z,24.79
2018-09-04T21:36:59.800Z,24.90
2018-09-04T21:39:28.618Z,25.01
2018-09-04T21:41:57.522Z,25.03
2018-09-04T21:44:26.436Z,25.17
2018-09-04T21:46:55.217Z,25.29
2018-09-04T21:49:24.083Z,25.35
2018-09-04T21:51:52.991Z,25.16
2018-09-04T21:54:21.874Z,25.24
2018-09-04T21:56:50.710Z,25.18
2018-09-04T21:59:19.589Z,25.20
2018-09-04T22:01:48.575Z,25.14
2018-09-04T22:04:17.649Z,25.15
2018-09-04T22:06:46.855Z,25.29
2018-09-04T22:09:15.795Z,25.39
2018-09-04T22:11:44.697Z,25.43
2018-09-04T22:14:13.537Z,25.01
2018-09-04T22:16:42.391Z,24.99
2018-09-04T22:19:11.801Z,25.17
2018-09-04T22:21:40.713Z,25.24
2018-09-04T22:24:09.577Z,25.19
2018-09-04T22:26:38.531Z,25.26
2018-09-04T22:29:07.429Z,25.03
2018-09-04T22:31:36.289Z,24.75
2018-09-04T22:34:05.252Z,24.71
2018-09-04T22:36:34.139Z,24.76
2018-09-04T22:39:03.097Z,24.90
2018-09-04T22:41:31.922Z,25.02
2018-09-04T22:44:00.672Z,25.11
2018-09-04T22:46:29.523Z,25.25
2018-09-04T22:48:58.714Z,25.20
2018-09-04T22:51:32.545Z,25.11
2018-09-04T22:54:01.447Z,24.86
2018-09-04T22:56:30.341Z,24.70
2018-09-04T22:58:59.563Z,25.00
2018-09-04T23:01:28.457Z,25.03
2018-09-04T23:03:57.351Z,24.99
2018-09-04T23:06:27.705Z,24.69
2018-09-04T23:08:56.590Z,24.50
2018-09-04T23:11:25.448Z,24.51
2018-09-04T23:13:54.334Z,24.33
2018-09-04T23:16:23.211Z,23.97
2018-09-04T23:18:52.075Z,24.15
2018-09-04T23:21:20.970Z,24.16
2018-09-04T23:23:49.888Z,24.05
2018-09-04T23:26:18.770Z,24.05
2018-09-04T23:28:47.758Z,24.08
2018-09-04T23:31:16.565Z,24.12
2018-09-04T23:33:45.497Z,24.00
2018-09-04T23:36:14.389Z,24.01
2018-09-04T23:38:43.237Z,24.03
2018-09-04T23:41:12.085Z,23.98
2018-09-04T23:43:40.927Z,23.94
2018-09-04T23:46:09.763Z,23.91
2018-09-04T23:48:38.643Z,23.90
2018-09-04T23:51:07.561Z,23.85
2018-09-04T23:53:36.446Z,23.67
2018-09-04T23:56:05.463Z,23.54
2018-09-04T23:58:34.362Z,23.39
